createdAt,value
2018-05-24T00:01:45.168Z,16.71
2018-05-24T00:06:47.756Z,16.65
2018-05-24T00:11:50.621Z,16.52
2018-05-24T00:16:54.011Z,16.48
2018-05-24T00:21:56.496Z,16.43
2018-05-24T00:26:58.992Z,16.32
2018-05-24T00:32:01.529Z,16.25
2018-05-24T00:37:04.040Z,16.19
2018-05-24T00:42:06.565Z,16.14
2018-05-24T00:47:09.082Z,15.99
2018-05-24T00:52:11.578Z,15.96
2018-05-24T00:57:14.108Z,15.88
2018-05-24T01:02:16.645Z,15.83
2018-05-24T01:07:19.282Z,15.69
2018-05-24T01:12:21.820Z,15.59
2018-05-24T01:17:25.016Z,15.52
2018-05-24T01:22:27.491Z,15.42
2018-05-24T01:27:30.001Z,15.19
2018-05-24T01:32:32.492Z,14.98
2018-05-24T01:37:47.954Z,14.88
2018-05-24T01:42:50.509Z,14.76
2018-05-24T01:47:53.020Z,14.72
2018-05-24T01:52:55.647Z,14.84
2018-05-24T01:57:58.099Z,14.77
2018-05-24T02:03:00.598Z,14.62
2018-05-24T02:08:03.116Z,14.69
2018-05-24T02:13:05.619Z,14.72
2018-05-24T02:18:08.105Z,14.56
2018-05-24T02:23:10.657Z,14.65
2018-05-24T02:28:13.504Z,14.63
2018-05-24T02:33:16.040Z,14.62
2018-05-24T02:38:18.830Z,14.60
2018-05-24T02:43:21.407Z,14.61
2018-05-24T02:48:23.967Z,14.70
2018-05-24T02:53:26.489Z,14.62
2018-05-24T03:03:37.572Z,14.56
2018-05-24T03:08:40.051Z,14.54
2018-05-24T03:13:44.784Z,14.65
2018-05-24T03:18:47.529Z,14.77
2018-05-24T03:23:50.067Z,14.79
2018-05-24T03:28:52.596Z,14.87
2018-05-24T03:33:55.479Z,14.98
2018-05-24T03:38:57.996Z,15.14
2018-05-24T03:44:00.573Z,15.28
2018-05-24T03:49:03.159Z,15.45
2018-05-24T03:54:05.629Z,15.54
2018-05-24T04:15:28.059Z,16.24
2018-05-24T04:20:30.541Z,16.37
2018-05-24T04:25:33.031Z,16.71
2018-05-24T04:30:35.565Z,18.91
2018-05-24T04:35:38.057Z,20.02
2018-05-24T04:40:40.562Z,19.29
2018-05-24T04:45:43.082Z,19.66
2018-05-24T04:50:45.604Z,19.76
2018-05-24T04:55:48.220Z,19.63
2018-05-24T05:00:50.862Z,19.44
2018-05-24T05:05:53.399Z,20.23
2018-05-24T05:10:55.905Z,20.72
2018-05-24T05:15:58.416Z,19.66
2018-05-24T05:26:28.289Z,19.80
2018-05-24T05:31:30.860Z,19.83
2018-05-24T05:36:33.652Z,20.06
2018-05-24T05:41:36.277Z,20.55
2018-05-24T05:46:38.782Z,21.24
2018-05-24T05:51:41.297Z,21.57
2018-05-24T05:56:43.912Z,22.74
2018-05-24T06:01:46.707Z,22.79
2018-05-24T06:06:49.194Z,21.15
2018-05-24T06:11:51.737Z,19.64
2018-05-24T06:16:54.248Z,21.33
2018-05-24T06:21:56.836Z,26.27
2018-05-24T06:26:59.300Z,29.12
2018-05-24T06:32:01.790Z,30.18
2018-05-24T06:37:04.294Z,29.60
2018-05-24T06:42:06.844Z,29.02
2018-05-24T06:47:09.352Z,28.75
2018-05-24T06:52:11.864Z,30.25
2018-05-24T06:57:14.405Z,28.87
2018-05-24T07:02:16.915Z,27.48
2018-05-24T07:07:19.425Z,26.62
2018-05-24T07:12:21.941Z,28.18
2018-05-24T07:17:25.297Z,27.08
2018-05-24T07:22:27.783Z,25.20
2018-05-24T07:27:30.254Z,23.67
2018-05-24T07:32:33.918Z,24.64
2018-05-24T07:37:36.414Z,25.10
2018-05-24T07:42:38.899Z,26.90
2018-05-24T07:47:41.416Z,28.67
2018-05-24T07:52:44.939Z,31.46
2018-05-24T07:57:47.563Z,31.25
2018-05-24T08:02:50.107Z,30.41
2018-05-24T08:07:52.615Z,32.04
2018-05-24T08:12:55.117Z,31.20
2018-05-24T08:17:57.588Z,29.80
2018-05-24T08:23:00.081Z,28.66
2018-05-24T08:28:02.600Z,29.09
2018-05-24T08:33:05.089Z,31.24
2018-05-24T08:38:07.584Z,31.80
2018-05-24T08:43:10.070Z,30.75
2018-05-24T08:48:12.632Z,28.53
2018-05-24T08:53:15.227Z,27.37
2018-05-24T08:58:17.719Z,25.25
2018-05-24T09:03:20.264Z,25.88
2018-05-24T09:08:22.847Z,28.21
2018-05-24T09:13:25.366Z,31.16
2018-05-24T09:18:27.860Z,30.42
2018-05-24T09:23:30.332Z,30.38
2018-05-24T09:28:32.847Z,28.26
2018-05-24T09:33:35.339Z,27.77
2018-05-24T09:38:37.834Z,29.73
2018-05-24T09:43:40.337Z,29.67
2018-05-24T09:48:42.903Z,30.93
2018-05-24T09:53:45.495Z,30.04
2018-05-24T09:58:48.023Z,30.18
2018-05-24T10:03:50.562Z,30.69
2018-05-24T10:08:53.095Z,29.39
2018-05-24T10:13:55.717Z,30.57
2018-05-24T10:18:58.239Z,28.65
2018-05-24T10:24:00.696Z,28.80
2018-05-24T10:29:03.306Z,30.03
2018-05-24T10:34:05.811Z,28.90
2018-05-24T10:39:08.588Z,28.00
2018-05-24T10:44:11.080Z,29.21
2018-05-24T10:49:13.595Z,27.88
2018-05-24T10:54:16.168Z,28.19
2018-05-24T10:59:18.709Z,27.68
2018-05-24T11:04:21.320Z,28.03
2018-05-24T11:09:23.970Z,28.25
2018-05-24T11:14:26.493Z,28.55
2018-05-24T11:19:29.107Z,28.05
2018-05-24T11:24:31.622Z,28.14
2018-05-24T11:29:34.114Z,27.36
2018-05-24T11:34:36.651Z,27.66
2018-05-24T11:39:41.406Z,27.94
2018-05-24T11:44:43.821Z,28.48
2018-05-24T11:49:46.331Z,28.48
2018-05-24T11:54:48.891Z,28.47
2018-05-24T11:59:51.549Z,27.36
2018-05-24T12:04:54.020Z,28.26
2018-05-24T12:09:56.643Z,27.85
2018-05-24T12:14:59.283Z,28.14
2018-05-24T12:20:01.808Z,28.00
2018-05-24T12:25:09.881Z,27.29
2018-05-24T12:30:12.659Z,27.50
2018-05-24T12:35:15.385Z,28.15
2018-05-24T12:40:17.825Z,27.03
2018-05-24T12:45:20.525Z,25.92
2018-05-24T12:50:23.018Z,25.84
2018-05-24T12:55:25.569Z,26.56
2018-05-24T13:00:28.088Z,26.98
2018-05-24T13:05:30.648Z,26.61
2018-05-24T13:10:33.143Z,26.55
2018-05-24T13:15:35.622Z,27.42
2018-05-24T13:20:38.108Z,26.89
2018-05-24T13:25:40.995Z,26.20
2018-05-24T13:30:43.489Z,26.60
2018-05-24T13:35:46.015Z,26.62
2018-05-24T13:40:48.984Z,26.32
2018-05-24T13:45:51.869Z,26.77
2018-05-24T13:50:54.664Z,27.10
2018-05-24T13:55:57.949Z,26.52
2018-05-24T14:01:00.457Z,26.72
2018-05-24T14:06:02.965Z,27.58
2018-05-24T14:11:05.466Z,26.98
2018-05-24T14:16:07.919Z,27.16
2018-05-24T14:21:10.418Z,27.50
2018-05-24T14:26:12.935Z,27.98
2018-05-24T14:31:15.421Z,27.36
2018-05-24T14:36:18.091Z,27.13
2018-05-24T14:41:21.291Z,27.50
2018-05-24T14:46:23.871Z,28.15
2018-05-24T14:51:26.576Z,28.50
2018-05-24T14:56:29.102Z,29.08
2018-05-24T15:01:31.613Z,28.22
2018-05-24T15:06:34.133Z,28.08
2018-05-24T15:11:37.385Z,28.87
2018-05-24T15:16:39.899Z,28.72
2018-05-24T15:21:42.398Z,27.68
2018-05-24T15:26:44.901Z,27.33
2018-05-24T15:31:48.080Z,27.64
2018-05-24T15:36:50.585Z,27.55
2018-05-24T15:41:53.480Z,28.08
2018-05-24T15:46:56.256Z,28.56
2018-05-24T15:51:58.848Z,27.97
2018-05-24T15:57:01.349Z,27.59
2018-05-24T16:02:03.860Z,27.60
2018-05-24T16:07:06.357Z,27.51
2018-05-24T16:12:08.850Z,27.81
2018-05-24T16:17:11.349Z,27.78
2018-05-24T16:22:13.823Z,27.71
2018-05-24T16:27:16.336Z,27.09
2018-05-24T16:32:18.859Z,26.90
2018-05-24T16:37:21.408Z,27.31
2018-05-24T16:42:23.972Z,26.95
2018-05-24T16:47:26.524Z,26.55
2018-05-24T16:52:29.065Z,27.22
2018-05-24T16:57:31.562Z,27.25
2018-05-24T17:02:34.044Z,27.38
2018-05-24T17:07:37.095Z,27.13
2018-05-24T17:12:39.746Z,26.68
2018-05-24T17:17:42.170Z,26.77
2018-05-24T17:22:44.677Z,26.39
2018-05-24T17:27:47.173Z,26.01
2018-05-24T17:32:49.756Z,25.65
2018-05-24T17:37:52.654Z,25.74
2018-05-24T17:42:55.833Z,26.12
2018-05-24T17:47:58.528Z,25.59
2018-05-24T17:53:02.252Z,25.32
2018-05-24T17:58:04.847Z,25.08
2018-05-24T18:03:07.330Z,24.77
2018-05-24T18:08:09.814Z,24.54
2018-05-24T18:13:12.367Z,24.20
2018-05-24T18:18:14.884Z,24.03
2018-05-24T18:23:17.809Z,23.73
2018-05-24T18:28:22.204Z,23.52
2018-05-24T18:33:24.728Z,23.38
2018-05-24T18:38:27.357Z,23.20
2018-05-24T18:43:31.091Z,23.06
2018-05-24T18:48:56.303Z,22.83
2018-05-24T18:54:00.104Z,22.64
2018-05-24T18:59:03.126Z,22.46
2018-05-24T19:04:10.108Z,22.24
2018-05-24T19:09:14.750Z,22.08
2018-05-24T19:14:17.267Z,21.88
2018-05-24T19:19:20.044Z,21.77
2018-05-24T19:24:24.931Z,21.57
2018-05-24T19:29:29.348Z,21.45
2018-05-24T19:34:33.646Z,21.20
2018-05-24T19:39:36.435Z,21.02
2018-05-24T19:44:42.362Z,20.89
2018-05-24T19:49:48.518Z,20.82
2018-05-24T19:54:52.146Z,20.59
2018-05-24T19:59:54.858Z,20.46
2018-05-24T20:04:59.871Z,20.37
2018-05-24T20:10:02.444Z,20.23
2018-05-24T20:15:05.069Z,20.19
2018-05-24T20:20:07.623Z,20.06
2018-05-24T20:25:10.054Z,19.93
2018-05-24T20:30:12.546Z,19.83
2018-05-24T20:35:15.072Z,19.75
2018-05-24T20:40:17.609Z,19.84
2018-05-24T20:45:20.133Z,19.63
2018-05-24T20:50:22.687Z,19.55
2018-05-24T20:55:26.975Z,19.39
2018-05-24T21:00:30.008Z,19.20
2018-05-24T21:05:34.290Z,19.07
2018-05-24T21:10:36.800Z,18.91
2018-05-24T21:15:39.846Z,18.80
2018-05-24T21:20:42.463Z,18.75
2018-05-24T21:25:45.701Z,18.70
2018-05-24T21:30:48.907Z,18.64
2018-05-24T21:35:51.824Z,18.47
2018-05-24T21:40:56.536Z,18.32
2018-05-24T21:45:59.090Z,18.23
2018-05-24T21:51:01.619Z,18.17
2018-05-24T21:56:04.359Z,18.14
2018-05-24T22:01:06.960Z,18.07
2018-05-24T22:06:09.498Z,18.07
2018-05-24T22:11:11.973Z,17.87
2018-05-24T22:16:14.519Z,17.84
2018-05-24T22:21:16.986Z,17.71
2018-05-24T22:26:19.551Z,17.71
2018-05-24T22:31:22.073Z,17.63
2018-05-24T22:36:24.598Z,17.51
2018-05-24T22:41:27.107Z,17.46
2018-05-24T22:46:29.637Z,17.28
2018-05-24T22:51:32.139Z,17.16
2018-05-24T22:56:34.676Z,17.22
2018-05-24T23:01:37.231Z,17.06
2018-05-24T23:06:39.750Z,16.95
2018-05-24T23:11:42.249Z,16.78
2018-05-24T23:16:44.755Z,16.65
2018-05-24T23:21:47.329Z,16.43
2018-05-24T23:26:49.847Z,16.33
2018-05-24T23:31:52.453Z,16.35
2018-05-24T23:36:54.958Z,16.33
2018-05-24T23:41:57.536Z,16.32
2018-05-24T23:47:00.130Z,16.37
2018-05-24T23:52:02.664Z,16.30
2018-05-24T23:57:05.209Z,16.13
